Time;durP1;ratioP1;P1;durP2;ratioP2;P2;SDS_P1;SDS_P2;PMS_P1;PMS_P2;Temp;Humidity;BMP_temperature;BMP_pressure;BME280_temperature;BME280_humidity;BME280_pressure;Samples;Min_cycle;Max_cycle;Signal;HPM_P1;HPM_P2
2023/07/12 00:01:00;;;;;;;6.47;3.50;;;19.10;99.90;;;;;;5094253;28;20479;-77
2023/07/12 00:03:26;;;;;;;6.28;3.63;;;19.10;99.90;;;;;;5106123;28;20068;-72
2023/07/12 00:05:53;;;;;;;6.88;3.50;;;19.20;99.90;;;;;;5108126;28;20036;-75
2023/07/12 00:08:22;;;;;;;9.55;2.85;;;19.20;99.90;;;;;;5108216;28;20090;-74
2023/07/12 00:10:50;;;;;;;7.05;3.58;;;19.20;99.90;;;;;;5122518;27;20052;-76
2023/07/12 00:13:16;;;;;;;5.50;3.13;;;19.30;99.90;;;;;;5107684;28;20046;-75
2023/07/12 00:15:43;;;;;;;5.43;3.15;;;19.30;99.90;;;;;;5108225;28;20039;-76
2023/07/12 00:18:18;;;;;;;5.43;3.13;;;19.30;99.90;;;;;;5108821;28;20027;-77
2023/07/12 00:20:45;;;;;;;5.03;3.03;;;19.30;99.90;;;;;;5105725;28;20044;-70
2023/07/12 00:23:12;;;;;;;7.10;2.75;;;19.20;99.90;;;;;;5101902;28;20023;-73
2023/07/12 00:25:38;;;;;;;5.88;3.20;;;19.20;99.90;;;;;;5125138;28;20045;-74
2023/07/12 00:28:16;;;;;;;3.42;2.20;;;19.10;99.90;;;;;;5129602;28;20023;-77
2023/07/12 00:30:42;;;;;;;6.25;2.00;;;19.00;99.90;;;;;;5089051;28;20558;-76
2023/07/12 00:33:09;;;;;;;4.15;2.35;;;18.90;99.90;;;;;;5099474;28;20111;-76
2023/07/12 00:35:36;;;;;;;3.83;2.20;;;18.80;99.90;;;;;;5108178;28;20032;-75
2023/07/12 00:38:01;;;;;;;3.00;2.00;;;18.80;99.90;;;;;;5109011;28;20033;-76
2023/07/12 00:40:33;;;;;;;5.38;1.95;;;18.80;99.90;;;;;;5107608;28;20399;-73
2023/07/12 00:43:20;;;;;;;3.30;1.70;;;18.80;99.90;;;;;;5108071;28;20031;-73
2023/07/12 00:45:49;;;;;;;4.25;2.08;;;18.80;99.90;;;;;;5107963;28;20086;-75
2023/07/12 00:48:15;;;;;;;3.03;1.50;;;18.80;99.90;;;;;;5107556;28;20052;-74
2023/07/12 00:50:42;;;;;;;3.78;1.63;;;18.90;99.90;;;;;;5106726;28;20042;-76
2023/07/12 00:53:16;;;;;;;3.80;1.75;;;19.00;99.90;;;;;;5106022;28;20545;-76
2023/07/12 00:56:03;;;;;;;2.08;1.50;;;19.10;99.90;;;;;;5087569;28;20727;-75
2023/07/12 00:58:44;;;;;;;3.50;1.58;;;19.10;99.90;;;;;;5106237;28;20375;-70
2023/07/12 01:01:10;;;;;;;4.53;1.70;;;19.10;99.90;;;;;;5097068;28;20028;-74
2023/07/12 01:03:38;;;;;;;5.22;2.00;;;19.10;99.90;;;;;;5105842;28;20491;-76
2023/07/12 01:06:08;;;;;;;3.88;1.60;;;19.10;99.90;;;;;;5108453;28;20122;-76
2023/07/12 01:08:34;;;;;;;7.95;1.70;;;19.30;99.90;;;;;;5107037;28;20740;-76
2023/07/12 01:11:02;;;;;;;12.38;1.55;;;19.30;99.90;;;;;;5108180;28;20059;-75
2023/07/12 01:13:36;;;;;;;101.28;6.28;;;19.30;99.90;;;;;;5108666;28;20026;-71
2023/07/12 01:16:03;;;;;;;6.07;1.70;;;19.30;99.90;;;;;;5107893;28;20035;-75
2023/07/12 01:18:29;;;;;;;3.58;1.80;;;19.40;99.90;;;;;;5105858;28;20502;-73
2023/07/12 01:21:19;;;;;;;6.07;1.92;;;19.40;99.90;;;;;;5106546;28;20024;-78
2023/07/12 01:23:46;;;;;;;2.83;1.90;;;19.50;99.90;;;;;;5086281;28;20177;-76
2023/07/12 01:26:17;;;;;;;3.80;1.70;;;19.60;99.90;;;;;;5088081;28;20534;-77
2023/07/12 01:28:43;;;;;;;6.90;1.80;;;19.60;99.90;;;;;;5104378;28;20039;-74
2023/07/12 01:31:09;;;;;;;3.65;1.90;;;19.70;99.90;;;;;;5105942;28;20028;-73
2023/07/12 01:33:34;;;;;;;3.17;2.00;;;19.60;99.90;;;;;;5109431;28;20034;-75
2023/07/12 01:36:00;;;;;;;4.60;2.55;;;19.40;99.90;;;;;;5112300;28;20031;-76
2023/07/12 01:38:26;;;;;;;5.00;2.30;;;19.10;99.90;;;;;;5111193;28;20050;-75
2023/07/12 01:40:51;;;;;;;5.28;2.40;;;18.90;99.90;;;;;;5108540;28;20032;-76
2023/07/12 01:43:17;;;;;;;6.35;2.35;;;19.00;99.90;;;;;;5111640;28;20035;-76
2023/07/12 01:45:42;;;;;;;4.65;2.28;;;19.10;99.90;;;;;;5100397;28;20070;-75
2023/07/12 01:48:08;;;;;;;3.38;2.40;;;19.10;99.90;;;;;;5111105;28;20043;-74
2023/07/12 01:50:33;;;;;;;4.32;2.22;;;19.10;99.90;;;;;;5110442;28;20040;-73
2023/07/12 01:52:59;;;;;;;7.15;2.45;;;19.10;99.90;;;;;;5108897;28;20023;-73
2023/07/12 01:55:25;;;;;;;6.95;2.75;;;19.10;99.90;;;;;;5110900;28;20377;-75
2023/07/12 01:57:50;;;;;;;4.78;2.50;;;19.10;99.90;;;;;;5109225;28;20106;-74
2023/07/12 02:00:16;;;;;;;8.05;2.90;;;19.10;99.90;;;;;;5121259;27;20031;-73
2023/07/12 02:02:42;;;;;;;5.20;2.80;;;19.20;99.90;;;;;;5125397;27;20050;-73
2023/07/12 02:05:08;;;;;;;108.22;7.82;;;19.30;99.90;;;;;;5097398;28;20061;-75
2023/07/12 02:07:33;;;;;;;5.15;2.63;;;19.40;99.90;;;;;;5110830;28;20126;-71
2023/07/12 02:10:16;;;;;;;6.93;2.78;;;19.30;99.90;;;;;;5110579;28;20076;-76
2023/07/12 02:12:43;;;;;;;6.57;2.85;;;19.30;99.90;;;;;;5110747;28;20042;-73
2023/07/12 02:15:10;;;;;;;5.97;3.03;;;19.40;99.90;;;;;;5115477;27;20043;-76
2023/07/12 02:17:36;;;;;;;5.80;2.78;;;19.40;99.90;;;;;;5111625;27;20587;-77
2023/07/12 02:20:03;;;;;;;6.55;2.95;;;19.40;99.90;;;;;;5110289;28;20052;-76
2023/07/12 02:22:30;;;;;;;11.65;2.92;;;19.50;99.90;;;;;;5110389;28;20031;-75
2023/07/12 02:24:56;;;;;;;8.63;2.85;;;19.40;99.90;;;;;;5109567;28;20508;-76
2023/07/12 02:27:22;;;;;;;7.47;2.58;;;19.50;99.90;;;;;;5108578;28;20045;-75
2023/07/12 02:29:47;;;;;;;6.60;3.10;;;19.50;99.90;;;;;;5106411;27;20065;-75
2023/07/12 02:32:13;;;;;;;9.75;3.38;;;19.50;99.90;;;;;;5110770;27;20050;-73
2023/07/12 02:34:38;;;;;;;7.95;3.17;;;19.50;99.90;;;;;;5110477;28;20031;-75
2023/07/12 02:37:04;;;;;;;8.93;2.88;;;19.50;99.90;;;;;;5112695;27;20066;-74
2023/07/12 02:39:30;;;;;;;7.22;2.80;;;19.30;99.90;;;;;;5099657;28;20077;-76
2023/07/12 02:41:55;;;;;;;7.10;3.10;;;19.30;99.90;;;;;;5089968;28;20559;-74
2023/07/12 02:44:22;;;;;;;6.05;2.80;;;19.30;99.90;;;;;;5101242;28;20035;-74
2023/07/12 02:46:47;;;;;;;8.68;2.92;;;19.40;99.90;;;;;;5105480;28;20076;-73
2023/07/12 02:49:13;;;;;;;5.53;2.63;;;19.40;99.90;;;;;;5108574;28;20066;-75
2023/07/12 02:51:39;;;;;;;10.80;3.00;;;19.50;99.90;;;;;;5111747;27;20353;-76
2023/07/12 02:54:05;;;;;;;11.07;3.60;;;19.50;99.90;;;;;;5110764;28;20118;-76
2023/07/12 02:56:31;;;;;;;5.22;3.25;;;19.50;99.90;;;;;;5110681;28;20037;-75
2023/07/12 02:58:57;;;;;;;9.65;3.20;;;19.40;99.90;;;;;;5086365;28;20131;-73
2023/07/12 03:01:25;;;;;;;7.60;2.88;;;19.40;99.90;;;;;;5109758;28;20075;-75
2023/07/12 03:03:52;;;;;;;7.93;3.10;;;19.40;99.90;;;;;;5109578;28;20026;-73
2023/07/12 03:06:18;;;;;;;12.82;3.30;;;19.30;99.90;;;;;;5116630;27;20035;-74
2023/07/12 03:08:44;;;;;;;5.70;3.33;;;19.30;99.90;;;;;;5109672;28;20023;-75
2023/07/12 03:11:10;;;;;;;10.35;3.30;;;19.40;99.90;;;;;;5110318;28;20020;-74
2023/07/12 03:13:36;;;;;;;8.57;3.20;;;19.40;99.90;;;;;;5109871;28;20031;-70
2023/07/12 03:16:06;;;;;;;6.63;2.95;;;19.30;99.90;;;;;;5109515;28;20085;-71
2023/07/12 03:18:32;;;;;;;8.05;3.15;;;19.10;99.90;;;;;;5109914;27;20039;-75
2023/07/12 03:20:59;;;;;;;9.02;3.25;;;19.10;99.90;;;;;;5108084;27;20218;-74
2023/07/12 03:23:25;;;;;;;7.45;3.58;;;19.10;99.90;;;;;;5105931;28;20023;-74
2023/07/12 03:25:50;;;;;;;10.85;4.10;;;19.20;99.90;;;;;;5108440;28;20036;-74
2023/07/12 03:28:16;;;;;;;7.53;3.60;;;19.20;99.90;;;;;;5110346;28;20699;-73
2023/07/12 03:30:41;;;;;;;7.78;3.55;;;19.20;99.90;;;;;;5109197;28;20055;-74
2023/07/12 03:33:07;;;;;;;10.52;3.70;;;19.10;99.90;;;;;;5109803;28;20034;-73
2023/07/12 03:35:33;;;;;;;8.45;3.25;;;19.10;99.90;;;;;;5112397;27;20376;-72
2023/07/12 03:37:58;;;;;;;12.10;3.63;;;19.20;99.90;;;;;;5109074;28;20535;-72
2023/07/12 03:40:24;;;;;;;9.25;3.45;;;19.20;99.90;;;;;;5107631;28;20076;-74
2023/07/12 03:42:50;;;;;;;12.32;3.70;;;19.20;99.90;;;;;;5104592;28;20767;-74
2023/07/12 03:45:15;;;;;;;10.90;3.00;;;19.20;99.90;;;;;;5106834;28;20035;-73
2023/07/12 03:47:41;;;;;;;7.75;3.63;;;19.20;99.90;;;;;;5108068;28;20434;-72
2023/07/12 03:50:07;;;;;;;7.72;3.85;;;19.20;99.90;;;;;;5098239;28;20419;-73
2023/07/12 03:52:32;;;;;;;10.13;3.60;;;19.10;99.90;;;;;;5109659;28;20103;-75
2023/07/12 03:54:58;;;;;;;7.85;3.60;;;19.10;99.90;;;;;;5091283;28;20032;-73
2023/07/12 03:57:23;;;;;;;8.50;3.60;;;19.10;99.90;;;;;;5107803;27;20052;-71
2023/07/12 03:59:49;;;;;;;8.65;3.33;;;19.10;99.90;;;;;;5107514;28;20027;-72
2023/07/12 04:02:15;;;;;;;11.38;3.40;;;19.20;99.90;;;;;;5109204;28;20423;-73
2023/07/12 04:04:40;;;;;;;8.68;3.35;;;19.20;99.90;;;;;;5108848;28;20030;-70
2023/07/12 04:07:07;;;;;;;12.85;4.32;;;19.10;99.90;;;;;;5090991;28;20044;-73
2023/07/12 04:09:33;;;;;;;10.48;3.38;;;19.10;99.90;;;;;;5108256;28;20043;-73
2023/07/12 04:11:59;;;;;;;8.63;2.80;;;19.10;99.90;;;;;;5108270;28;20019;-72
2023/07/12 04:14:24;;;;;;;11.57;3.28;;;19.10;99.90;;;;;;5103109;28;20437;-71
2023/07/12 04:16:50;;;;;;;8.60;3.45;;;19.20;99.90;;;;;;5106892;27;20027;-71
2023/07/12 04:19:15;;;;;;;9.77;3.75;;;19.20;99.90;;;;;;5111724;28;20024;-73
2023/07/12 04:21:41;;;;;;;7.35;3.60;;;19.30;99.90;;;;;;5116526;28;20530;-68
2023/07/12 04:24:07;;;;;;;9.70;3.25;;;19.40;99.90;;;;;;5112499;28;20076;-72
2023/07/12 04:26:32;;;;;;;13.20;3.42;;;19.50;99.90;;;;;;5111698;28;20079;-71
2023/07/12 04:28:58;;;;;;;8.93;3.53;;;19.50;99.90;;;;;;5098800;28;20095;-75
2023/07/12 04:31:24;;;;;;;8.10;3.53;;;19.50;99.90;;;;;;5101874;28;20445;-76
2023/07/12 04:33:49;;;;;;;8.70;3.40;;;19.50;99.90;;;;;;5107453;28;20031;-75
2023/07/12 04:36:17;;;;;;;16.05;3.85;;;19.70;99.90;;;;;;5108712;28;20038;-77
2023/07/12 04:38:43;;;;;;;13.60;3.65;;;19.70;99.90;;;;;;5106173;28;20027;-70
2023/07/12 04:41:09;;;;;;;9.98;3.05;;;19.70;99.90;;;;;;5108111;28;20529;-75
2023/07/12 04:43:34;;;;;;;10.43;3.95;;;19.80;99.90;;;;;;5112786;28;20035;-75
2023/07/12 04:46:00;;;;;;;9.93;3.22;;;19.80;99.90;;;;;;5107694;28;20036;-76
2023/07/12 04:48:26;;;;;;;7.97;3.97;;;19.80;99.90;;;;;;5108841;28;20070;-77
2023/07/12 04:50:53;;;;;;;12.60;3.65;;;19.90;99.90;;;;;;5108491;28;20074;-76
2023/07/12 04:53:20;;;;;;;11.57;3.70;;;19.80;99.90;;;;;;5107240;28;20024;-74
2023/07/12 04:55:47;;;;;;;11.55;3.40;;;19.70;99.90;;;;;;5107863;28;20080;-74
2023/07/12 04:58:12;;;;;;;6.93;3.50;;;19.70;99.90;;;;;;5109718;28;20027;-73
2023/07/12 05:00:38;;;;;;;10.55;3.50;;;19.70;99.90;;;;;;5106301;28;20038;-73
2023/07/12 05:03:04;;;;;;;15.27;3.95;;;19.70;99.90;;;;;;5102171;28;20065;-72
2023/07/12 05:05:30;;;;;;;7.80;3.53;;;19.80;99.90;;;;;;5109106;28;20031;-76
2023/07/12 05:07:56;;;;;;;13.23;3.55;;;19.90;99.90;;;;;;5109526;27;20444;-73
2023/07/12 05:10:22;;;;;;;10.23;3.65;;;20.10;99.90;;;;;;5110549;28;20381;-73
2023/07/12 05:12:48;;;;;;;8.27;3.50;;;20.30;99.90;;;;;;5110909;28;20137;-76
2023/07/12 05:15:15;;;;;;;11.02;4.22;;;20.40;99.90;;;;;;5112194;28;20478;-76
2023/07/12 05:17:42;;;;;;;13.98;3.75;;;20.50;99.90;;;;;;5116054;27;20060;-71
2023/07/12 05:20:10;;;;;;;9.90;4.32;;;20.60;99.90;;;;;;5132157;27;20118;-75
2023/07/12 05:22:36;;;;;;;7.85;3.60;;;20.50;99.90;;;;;;5133038;27;20019;-76
2023/07/12 05:25:03;;;;;;;14.13;4.00;;;20.40;99.90;;;;;;5132074;27;20147;-74
2023/07/12 05:27:28;;;;;;;12.95;4.20;;;20.40;99.90;;;;;;5132681;27;20071;-75
2023/07/12 05:29:54;;;;;;;16.42;4.43;;;20.40;99.90;;;;;;5132022;27;20383;-74
2023/07/12 05:32:20;;;;;;;9.65;4.00;;;20.30;99.90;;;;;;5132745;27;20023;-73
2023/07/12 05:34:45;;;;;;;9.18;3.83;;;20.30;99.90;;;;;;5131310;27;20391;-72
2023/07/12 05:37:12;;;;;;;7.40;3.75;;;20.30;99.90;;;;;;5132770;27;20107;-76
2023/07/12 05:39:38;;;;;;;11.43;4.22;;;20.40;99.90;;;;;;5132596;27;20027;-75
2023/07/12 05:42:04;;;;;;;13.80;3.70;;;20.40;99.90;;;;;;5131905;27;20787;-74
2023/07/12 05:44:30;;;;;;;6.95;4.15;;;20.40;99.90;;;;;;5132644;27;20504;-74
2023/07/12 05:46:56;;;;;;;9.32;3.60;;;20.50;99.90;;;;;;5127643;27;20063;-73
2023/07/12 05:49:22;;;;;;;13.55;4.05;;;20.50;99.90;;;;;;5125052;27;20039;-74
2023/07/12 05:51:48;;;;;;;8.55;3.75;;;20.60;99.90;;;;;;5110889;28;20024;-73
2023/07/12 05:54:14;;;;;;;12.10;3.88;;;20.50;99.90;;;;;;5111383;28;20112;-74
2023/07/12 05:56:40;;;;;;;15.15;4.15;;;20.50;99.90;;;;;;5111943;27;20058;-75
2023/07/12 05:59:06;;;;;;;10.40;4.28;;;20.40;99.90;;;;;;5110959;28;20608;-75
2023/07/12 06:01:31;;;;;;;11.30;3.90;;;20.50;99.90;;;;;;5109711;28;20027;-72
2023/07/12 06:03:57;;;;;;;8.38;4.20;;;20.60;99.90;;;;;;5099144;28;20036;-75
2023/07/12 06:06:23;;;;;;;12.13;4.25;;;20.60;99.90;;;;;;5096104;28;20092;-73
2023/07/12 06:08:49;;;;;;;9.15;3.75;;;20.70;99.90;;;;;;5090464;28;20024;-73
2023/07/12 06:11:15;;;;;;;10.68;3.85;;;20.80;99.90;;;;;;5094518;28;20110;-73
2023/07/12 06:13:40;;;;;;;10.23;4.30;;;21.00;99.90;;;;;;5110752;28;20450;-74
2023/07/12 06:16:06;;;;;;;8.02;3.92;;;21.00;99.90;;;;;;5107772;28;20023;-73
2023/07/12 06:18:32;;;;;;;10.20;4.10;;;21.10;99.90;;;;;;5125491;27;20039;-73
2023/07/12 06:21:00;;;;;;;8.65;3.88;;;21.10;99.90;;;;;;5126019;27;20023;-75
2023/07/12 06:23:26;;;;;;;14.85;4.10;;;21.10;99.90;;;;;;5110992;28;20019;-76
2023/07/12 06:25:55;;;;;;;13.57;4.38;;;21.20;99.90;;;;;;5096075;28;20032;-76
2023/07/12 06:28:21;;;;;;;10.68;4.15;;;21.30;99.90;;;;;;5107608;28;20039;-72
2023/07/12 06:30:46;;;;;;;12.25;4.20;;;21.30;99.90;;;;;;5106614;28;20444;-73
2023/07/12 06:33:12;;;;;;;10.13;4.28;;;21.20;99.90;;;;;;5109501;27;20543;-73
2023/07/12 06:35:39;;;;;;;9.75;4.30;;;21.20;99.90;;;;;;5111039;28;20035;-74
2023/07/12 06:38:04;;;;;;;10.70;4.18;;;21.20;99.90;;;;;;5110210;28;20019;-74
2023/07/12 06:40:30;;;;;;;13.25;5.20;;;21.20;99.90;;;;;;5111094;28;20023;-74
2023/07/12 06:42:57;;;;;;;14.27;4.53;;;21.20;99.90;;;;;;5110170;28;20050;-74
2023/07/12 06:45:22;;;;;;;7.82;4.43;;;21.20;99.90;;;;;;5110397;28;20545;-74
2023/07/12 06:47:48;;;;;;;14.32;4.82;;;21.40;99.90;;;;;;5091266;28;20087;-73
2023/07/12 06:50:14;;;;;;;11.35;5.38;;;21.60;99.90;;;;;;5110589;28;20043;-74
2023/07/12 06:52:39;;;;;;;14.35;5.30;;;21.80;99.90;;;;;;5110692;28;20107;-74
2023/07/12 06:55:05;;;;;;;14.27;5.10;;;21.90;99.90;;;;;;5109603;28;20020;-75
2023/07/12 06:57:33;;;;;;;12.88;5.45;;;21.80;99.90;;;;;;5110668;28;20027;-73
2023/07/12 07:00:04;;;;;;;12.27;6.03;;;21.70;99.90;;;;;;5109802;28;20456;-76
2023/07/12 07:02:29;;;;;;;;;;;21.50;99.90;;;;;;5103962;27;20032;-76
2023/07/12 07:04:55;;;;;;;14.32;6.03;;;21.50;99.90;;;;;;5089370;28;19904;-76
2023/07/12 07:07:21;;;;;;;16.25;6.28;;;21.50;99.90;;;;;;5119909;27;20043;-74
2023/07/12 07:09:46;;;;;;;10.75;5.80;;;21.50;99.90;;;;;;5112386;27;20462;-76
2023/07/12 07:12:12;;;;;;;12.50;5.90;;;21.40;99.90;;;;;;5130244;27;20027;-73
2023/07/12 07:14:38;;;;;;;19.08;6.35;;;21.30;99.90;;;;;;5131207;27;20080;-74
2023/07/12 07:17:04;;;;;;;15.18;6.75;;;21.20;99.90;;;;;;5125027;27;20070;-73
2023/07/12 07:19:30;;;;;;;16.45;6.63;;;21.10;99.90;;;;;;5110194;28;20039;-77
2023/07/12 07:21:55;;;;;;;16.45;7.05;;;21.20;99.90;;;;;;5123065;27;20038;-76
2023/07/12 07:24:21;;;;;;;19.88;7.60;;;21.20;99.90;;;;;;5130754;27;20065;-75
2023/07/12 07:26:46;;;;;;;13.65;6.43;;;21.30;99.90;;;;;;5130460;27;20456;-73
2023/07/12 07:29:12;;;;;;;12.23;6.65;;;21.30;99.90;;;;;;5129348;27;20057;-75
2023/07/12 07:31:38;;;;;;;18.02;7.63;;;21.40;99.90;;;;;;5130338;27;20387;-76
2023/07/12 07:34:04;;;;;;;13.63;6.47;;;21.50;99.90;;;;;;5129491;27;20027;-75
2023/07/12 07:36:29;;;;;;;20.20;6.75;;;21.70;99.90;;;;;;5123973;27;20380;-73
2023/07/12 07:38:55;;;;;;;11.35;6.60;;;21.90;99.90;;;;;;5125243;27;20020;-74
2023/07/12 07:41:21;;;;;;;14.30;6.47;;;22.10;99.90;;;;;;5107465;27;20028;-74
2023/07/12 07:43:46;;;;;;;19.73;7.72;;;22.10;99.90;;;;;;5125967;27;20058;-74
2023/07/12 07:46:14;;;;;;;14.15;6.90;;;22.30;99.90;;;;;;5110020;27;20084;-75
2023/07/12 07:48:40;;;;;;;15.25;7.05;;;22.50;99.90;;;;;;5107147;28;20192;-76
2023/07/12 07:51:10;;;;;;;11.70;6.60;;;22.70;99.90;;;;;;5108830;28;20512;-76
2023/07/12 07:53:36;;;;;;;21.65;8.07;;;22.80;99.90;;;;;;5091267;28;20019;-75
2023/07/12 07:56:01;;;;;;;13.63;6.65;;;22.80;99.90;;;;;;5108664;28;20039;-75
2023/07/12 07:58:27;;;;;;;18.42;7.22;;;22.90;99.90;;;;;;5108359;28;20106;-75
2023/07/12 08:00:53;;;;;;;17.80;8.02;;;23.20;99.90;;;;;;5108356;28;20398;-70
2023/07/12 08:03:19;;;;;;;12.55;7.22;;;23.20;99.90;;;;;;5109039;28;20069;-75
2023/07/12 08:05:45;;;;;;;22.67;6.85;;;23.10;99.90;;;;;;5109252;28;20044;-78
2023/07/12 08:08:11;;;;;;;20.00;7.70;;;23.00;99.90;;;;;;5108538;28;20051;-79
2023/07/12 08:10:37;;;;;;;18.98;6.32;;;23.20;99.90;;;;;;5109254;28;20073;-76
2023/07/12 08:13:03;;;;;;;10.48;6.72;;;23.40;99.90;;;;;;5110782;27;21669;-75
2023/07/12 08:15:29;;;;;;;15.38;6.78;;;23.40;99.90;;;;;;5127721;27;20057;-73
2023/07/12 08:17:55;;;;;;;15.65;6.90;;;23.20;99.90;;;;;;5117486;27;20464;-73
2023/07/12 08:20:22;;;;;;;14.35;6.07;;;23.30;99.90;;;;;;5127200;28;20027;-77
2023/07/12 08:22:48;;;;;;;13.75;6.57;;;23.40;99.90;;;;;;5129636;28;20035;-73
2023/07/12 08:25:14;;;;;;;10.55;6.30;;;23.60;99.90;;;;;;5128829;28;20098;-78
2023/07/12 08:27:40;;;;;;;15.95;6.68;;;23.70;99.90;;;;;;5129429;28;20102;-75
2023/07/12 08:30:07;;;;;;;13.48;6.80;;;23.70;99.90;;;;;;5124699;28;20597;-77
2023/07/12 08:32:33;;;;;;;22.80;6.85;;;23.80;99.90;;;;;;5109391;28;20028;-77
2023/07/12 08:35:00;;;;;;;14.35;6.70;;;23.80;99.90;;;;;;5108225;28;20119;-73
2023/07/12 08:37:27;;;;;;;17.58;6.85;;;23.80;99.90;;;;;;5109302;28;20031;-76
2023/07/12 08:39:53;;;;;;;14.23;6.93;;;23.80;99.90;;;;;;5109372;28;20803;-72
2023/07/12 08:42:25;;;;;;;18.40;6.35;;;23.90;99.90;;;;;;5110972;28;20051;-74
2023/07/12 08:44:54;;;;;;;14.85;6.70;;;23.90;99.90;;;;;;5120219;27;20046;-78
2023/07/12 08:47:26;;;;;;;17.77;6.60;;;24.00;99.90;;;;;;5125052;27;20055;-79
2023/07/12 08:49:51;;;;;;;15.90;7.00;;;24.10;99.90;;;;;;5129952;27;20038;-75
2023/07/12 08:52:22;;;;;;;18.10;6.82;;;24.30;99.90;;;;;;5132601;27;20050;-74
2023/07/12 08:54:48;;;;;;;;;;;24.40;99.90;;;;;;5134134;27;20110;-74
2023/07/12 08:57:17;;;;;;;14.38;6.53;;;24.20;99.90;;;;;;5114251;27;19919;-74
2023/07/12 08:59:56;;;;;;;14.47;6.17;;;24.20;99.90;;;;;;5131525;27;20019;-74
2023/07/12 09:02:24;;;;;;;12.30;6.00;;;24.30;99.90;;;;;;5132971;27;20076;-75
2023/07/12 09:04:51;;;;;;;15.77;6.30;;;24.50;99.90;;;;;;5133197;27;20528;-77
2023/07/12 09:07:24;;;;;;;14.63;6.25;;;24.70;99.90;;;;;;5132440;27;20589;-75
2023/07/12 09:09:50;;;;;;;13.38;6.25;;;24.80;99.90;;;;;;5114737;27;20031;-77
2023/07/12 09:12:25;;;;;;;10.88;6.40;;;24.70;99.90;;;;;;5132510;27;20027;-76
2023/07/12 09:14:59;;;;;;;10.00;5.90;;;24.70;99.90;;;;;;5128186;27;20019;-74
2023/07/12 09:17:27;;;;;;;12.57;6.28;;;24.70;99.90;;;;;;5112392;28;20039;-78
2023/07/12 09:19:53;;;;;;;10.25;5.97;;;24.80;99.90;;;;;;5112636;28;20535;-74
2023/07/12 09:22:19;;;;;;;13.18;6.60;;;25.10;99.90;;;;;;5127465;27;20209;-77
2023/07/12 09:24:56;;;;;;;14.68;6.32;;;25.00;99.90;;;;;;5112466;28;20055;-76
2023/07/12 09:27:27;;;;;;;14.40;6.35;;;25.30;99.90;;;;;;5112029;28;20038;-76
2023/07/12 09:30:04;;;;;;;13.20;6.20;;;25.20;99.90;;;;;;5116882;27;20542;-74
2023/07/12 09:32:36;;;;;;;11.50;6.30;;;25.30;99.90;;;;;;5130764;27;20030;-75
2023/07/12 09:35:03;;;;;;;14.57;6.53;;;25.50;99.90;;;;;;5132164;27;20356;-76
2023/07/12 09:37:36;;;;;;;13.52;6.25;;;25.70;99.90;;;;;;5132823;27;20106;-73
2023/07/12 09:40:03;;;;;;;18.10;6.68;;;25.60;99.90;;;;;;5113473;27;20050;-72
2023/07/12 09:42:30;;;;;;;10.02;5.90;;;25.80;99.90;;;;;;5132661;27;20027;-75
2023/07/12 09:44:58;;;;;;;14.30;6.70;;;25.90;99.90;;;;;;5132585;27;20019;-72
2023/07/12 09:47:41;;;;;;;14.02;7.18;;;25.50;99.90;;;;;;5128198;27;20069;-73
2023/07/12 09:50:22;;;;;;;12.15;6.75;;;25.40;99.90;;;;;;5131801;27;20054;-77
2023/07/12 09:53:10;;;;;;;10.55;6.05;;;25.50;99.90;;;;;;5130222;27;20476;-76
2023/07/12 09:55:51;;;;;;;11.75;6.60;;;25.70;99.90;;;;;;5106110;27;20047;-74
2023/07/12 09:58:16;;;;;;;;;;;25.60;99.90;;;;;;5091228;28;20024;-77
2023/07/12 10:00:55;;;;;;;10.68;6.38;;;25.60;99.90;;;;;;5091198;28;19915;-74
2023/07/12 10:03:36;;;;;;;22.80;6.65;;;25.80;99.90;;;;;;5092402;28;20856;-76
2023/07/12 10:06:16;;;;;;;;;;;26.10;99.90;;;;;;5111208;28;20047;-71
2023/07/12 10:08:42;;;;;;;;;;;26.10;99.90;;;;;;5112042;28;19957;-76
2023/07/12 10:11:23;;;;;;;7.22;5.22;;;26.10;99.90;;;;;;5110803;28;20288;-75
2023/07/12 10:13:53;;;;;;;7.75;5.00;;;26.50;99.90;;;;;;5111691;28;20448;-76
2023/07/12 10:16:34;;;;;;;10.88;5.28;;;26.50;99.90;;;;;;5110466;28;20031;-75
2023/07/12 10:19:09;;;;;;;9.95;5.38;;;26.40;99.90;;;;;;5099784;28;20036;-71
2023/07/12 10:21:36;;;;;;;9.32;5.03;;;26.70;99.90;;;;;;5111584;28;20032;-76
2023/07/12 10:24:04;;;;;;;13.68;5.30;;;26.50;99.90;;;;;;5110847;28;20024;-71
2023/07/12 10:26:31;;;;;;;10.48;5.55;;;26.30;99.90;;;;;;5110879;28;20541;-76
2023/07/12 10:29:11;;;;;;;12.13;5.40;;;26.20;99.90;;;;;;5111307;28;20035;-77
2023/07/12 10:31:55;;;;;;;14.00;5.28;;;26.10;99.90;;;;;;5111134;28;20035;-73
2023/07/12 10:34:39;;;;;;;10.30;5.30;;;25.90;99.90;;;;;;5124864;27;20705;-74
2023/07/12 10:37:18;;;;;;;12.68;5.35;;;25.90;99.90;;;;;;5130861;27;20031;-77
2023/07/12 10:39:45;;;;;;;11.30;5.35;;;25.70;99.90;;;;;;5131644;27;20038;-74
2023/07/12 10:42:28;;;;;;;15.00;5.38;;;25.60;99.90;;;;;;5130767;27;20027;-76
2023/07/12 10:44:55;;;;;;;8.13;5.30;;;25.40;99.90;;;;;;5113073;27;20031;-73
2023/07/12 10:47:27;;;;;;;11.82;5.13;;;25.30;99.90;;;;;;5122313;27;20043;-71
2023/07/12 10:50:01;;;;;;;9.02;5.28;;;25.60;99.90;;;;;;5110899;28;20028;-74
2023/07/12 10:52:55;;;;;;;12.43;5.82;;;25.60;99.90;;;;;;5091000;28;20495;-73
2023/07/12 10:55:38;;;;;;;9.85;5.70;;;25.80;99.90;;;;;;5089531;28;20059;-74
2023/07/12 10:58:23;;;;;;;11.73;5.63;;;26.00;99.90;;;;;;5089954;28;20043;-74
2023/07/12 11:00:59;;;;;;;10.48;5.65;;;26.50;99.90;;;;;;5090232;28;20053;-77
2023/07/12 11:03:47;;;;;;;9.88;5.68;;;26.60;99.90;;;;;;5089712;28;20062;-73
2023/07/12 11:06:23;;;;;;;13.10;6.28;;;26.80;99.90;;;;;;5089175;28;20032;-73
2023/07/12 11:08:54;;;;;;;12.07;5.65;;;27.10;99.90;;;;;;5090185;28;20043;-73
2023/07/12 11:11:20;;;;;;;12.00;5.90;;;27.00;99.90;;;;;;5089215;28;20391;-74
2023/07/12 11:13:51;;;;;;;11.43;5.25;;;26.80;99.90;;;;;;5089941;28;20020;-74
2023/07/12 11:16:19;;;;;;;8.75;5.30;;;26.60;99.90;;;;;;5088800;28;20028;-74
2023/07/12 11:18:51;;;;;;;12.93;5.40;;;26.50;99.90;;;;;;5127490;27;20070;-75
2023/07/12 11:21:44;;;;;;;13.73;6.07;;;27.00;99.90;;;;;;5129988;27;20468;-73
2023/07/12 11:24:25;;;;;;;7.25;5.00;;;27.80;99.90;;;;;;5129954;27;20028;-76
2023/07/12 11:26:55;;;;;;;9.27;5.55;;;27.60;99.90;;;;;;5130697;27;20522;-75
2023/07/12 11:29:35;;;;;;;10.68;5.40;;;27.60;99.90;;;;;;5129895;27;20028;-74
2023/07/12 11:32:10;;;;;;;23.52;5.32;;;28.00;99.90;;;;;;5122486;27;20027;-75
2023/07/12 11:34:40;;;;;;;8.95;5.43;;;28.00;99.90;;;;;;5110079;28;20085;-75
2023/07/12 11:37:23;;;;;;;11.60;6.03;;;27.40;99.90;;;;;;5109436;28;20032;-70
2023/07/12 11:39:49;;;;;;;12.93;5.13;;;27.00;99.90;;;;;;5110078;28;20040;-75
2023/07/12 11:42:27;;;;;;;10.05;5.07;;;26.80;99.90;;;;;;5109054;28;20023;-73
2023/07/12 11:45:11;;;;;;;8.82;4.65;;;26.60;99.90;;;;;;5109733;28;20038;-73
2023/07/12 11:47:43;;;;;;;11.48;5.05;;;27.10;99.90;;;;;;5113781;27;20588;-75
2023/07/12 11:50:31;;;;;;;10.88;5.05;;;27.20;99.90;;;;;;5108885;28;20085;-74
2023/07/12 11:52:57;;;;;;;11.25;5.00;;;27.00;99.90;;;;;;5109672;28;20031;-76
2023/07/12 11:55:28;;;;;;;12.75;5.03;;;27.50;99.90;;;;;;5108713;28;20847;-75
2023/07/12 11:57:55;;;;;;;8.75;5.10;;;28.10;99.90;;;;;;5109631;28;20502;-74
2023/07/12 12:00:28;;;;;;;8.90;4.22;;;28.80;99.90;;;;;;5108749;28;20019;-76
2023/07/12 12:02:56;;;;;;;10.60;5.65;;;29.00;99.90;;;;;;5110618;27;20036;-76
2023/07/12 12:05:28;;;;;;;11.05;5.30;;;28.90;99.90;;;;;;5129304;27;20581;-74
2023/07/12 12:07:56;;;;;;;8.98;4.80;;;28.70;99.40;;;;;;5129786;27;20031;-72
2023/07/12 12:10:28;;;;;;;10.55;4.60;;;28.20;99.90;;;;;;5129303;27;20023;-75
2023/07/12 12:12:54;;;;;;;7.95;5.40;;;28.20;99.90;;;;;;5130087;27;20035;-74
2023/07/12 12:15:25;;;;;;;10.82;5.07;;;28.30;99.90;;;;;;5110418;27;20030;-75
2023/07/12 12:17:51;;;;;;;7.03;4.90;;;28.60;99.90;;;;;;5122463;27;20463;-74
2023/07/12 12:20:21;;;;;;;9.75;4.80;;;28.90;99.90;;;;;;5129083;27;20035;-74
2023/07/12 12:22:56;;;;;;;17.70;5.07;;;29.40;99.60;;;;;;5098034;28;20039;-72
2023/07/12 12:25:25;;;;;;;11.55;5.25;;;29.60;98.20;;;;;;5087851;28;20101;-76
2023/07/12 12:27:51;;;;;;;11.40;5.32;;;29.40;96.90;;;;;;5089044;28;20031;-73
2023/07/12 12:30:19;;;;;;;10.20;5.40;;;29.40;98.00;;;;;;5119664;28;20041;-74
2023/07/12 12:33:19;;;;;;;12.15;5.40;;;29.30;95.10;;;;;;5129550;28;20035;-76
2023/07/12 12:35:47;;;;;;;8.57;5.40;;;29.40;95.70;;;;;;5129766;28;20023;-75
2023/07/12 12:38:32;;;;;;;6.88;4.78;;;29.30;96.20;;;;;;5128776;28;20031;-74
2023/07/12 12:41:14;;;;;;;8.63;5.57;;;29.40;95.40;;;;;;5129709;28;20029;-74
2023/07/12 12:44:07;;;;;;;9.65;5.40;;;29.30;94.00;;;;;;5124120;28;20028;-74
2023/07/12 12:46:32;;;;;;;9.05;5.55;;;29.10;94.80;;;;;;5108375;28;20130;-78
2023/07/12 12:48:58;;;;;;;12.52;4.90;;;29.40;94.60;;;;;;5109195;28;20130;-72
2023/07/12 12:51:24;;;;;;;12.68;4.88;;;28.70;92.40;;;;;;5124114;28;20028;-73